Time;durP1;ratioP1;P1;durP2;ratioP2;P2;SDS_P1;SDS_P2;PMS_P1;PMS_P2;Temp;Humidity;BMP_temperature;BMP_pressure;BME280_temperature;BME280_humidity;BME280_pressure;Samples;Min_cycle;Max_cycle;Signal;HPM_P1;HPM_P2
2022/04/12 00:00:43;;;;;;;28.05;10.43;;;;;;;;;;5092514;28;20028;-62
2022/04/12 00:03:09;;;;;;;32.40;9.13;;;;;;;;;;5092628;28;20027;-62
2022/04/12 00:05:36;;;;;;;31.30;8.32;;;;;;;;;;5092100;28;20505;-62
2022/04/12 00:08:03;;;;;;;20.92;7.63;;;;;;;;;;5091405;28;20508;-62
2022/04/12 00:10:30;;;;;;;25.45;9.48;;;;;;;;;;5092287;28;20117;-62
2022/04/12 00:13:00;;;;;;;19.10;7.85;;;;;;;;;;5092366;28;20023;-62
2022/04/12 00:15:26;;;;;;;22.40;7.80;;;;;;;;;;5092385;28;20077;-62
2022/04/12 00:20:38;;;;;;;16.15;6.80;;;;;;;;;;5092780;28;20031;-62
2022/04/12 00:23:05;;;;;;;14.35;7.70;;;;;;;;;;5092192;28;20115;-62
2022/04/12 00:25:31;;;;;;;23.20;7.68;;;;;;;;;;5092203;28;20043;-62
2022/04/12 00:27:58;;;;;;;14.93;7.13;;;;;;;;;;5091961;28;20058;-62
2022/04/12 00:30:25;;;;;;;19.40;6.90;;;;;;;;;;5092128;28;20401;-62
2022/04/12 00:32:52;;;;;;;21.05;8.10;;;;;;;;;;5092236;28;20036;-62
2022/04/12 00:35:19;;;;;;;18.60;7.30;;;;;;;;;;5092079;28;20497;-62
2022/04/12 00:37:46;;;;;;;22.58;7.88;;;;;;;;;;5092516;28;20546;-62
2022/04/12 00:40:13;;;;;;;25.90;8.77;;;;;;;;;;5092000;28;20111;-62
2022/04/12 00:42:39;;;;;;;21.38;8.10;;;;;;;;;;5092519;28;20397;-62
2022/04/12 00:45:06;;;;;;;27.45;9.85;;;;;;;;;;5091604;28;20115;-62
2022/04/12 00:47:32;;;;;;;24.15;7.63;;;;;;;;;;5092177;28;20024;-62
2022/04/12 00:49:58;;;;;;;25.75;8.20;;;;;;;;;;5092127;28;20059;-62
2022/04/12 00:52:25;;;;;;;17.08;7.13;;;;;;;;;;5092194;28;20020;-62
2022/04/12 00:54:53;;;;;;;19.70;7.97;;;;;;;;;;5092019;28;20024;-62
2022/04/12 00:57:19;;;;;;;14.52;6.68;;;;;;;;;;5091754;28;20024;-62
2022/04/12 00:59:46;;;;;;;14.45;7.38;;;;;;;;;;5091807;28;20063;-62
2022/04/12 01:02:12;;;;;;;18.80;6.45;;;;;;;;;;5091719;28;20095;-62
2022/04/12 01:04:38;;;;;;;21.13;6.53;;;;;;;;;;5092147;28;20024;-62
2022/04/12 01:07:04;;;;;;;23.63;7.80;;;;;;;;;;5091743;28;20393;-62
2022/04/12 01:09:31;;;;;;;20.15;7.22;;;;;;;;;;5091948;28;20069;-62
2022/04/12 01:11:58;;;;;;;24.00;7.28;;;;;;;;;;5092113;28;20358;-62
2022/04/12 01:14:25;;;;;;;18.42;7.22;;;;;;;;;;5091474;28;20023;-62
2022/04/12 01:16:52;;;;;;;21.15;7.85;;;;;;;;;;5091994;28;20031;-62
2022/04/12 01:19:19;;;;;;;20.33;8.40;;;;;;;;;;5091717;28;20035;-62
2022/04/12 01:21:45;;;;;;;23.10;7.82;;;;;;;;;;5091833;28;20024;-62
2022/04/12 01:24:11;;;;;;;13.35;7.30;;;;;;;;;;5091637;28;20034;-62
2022/04/12 01:26:37;;;;;;;24.25;8.27;;;;;;;;;;5091788;28;20491;-62
2022/04/12 01:29:03;;;;;;;24.13;8.20;;;;;;;;;;5091560;28;20032;-62
2022/04/12 01:31:29;;;;;;;20.30;7.75;;;;;;;;;;5091748;28;20024;-62
2022/04/12 01:33:55;;;;;;;23.52;7.72;;;;;;;;;;5091764;28;20038;-61
2022/04/12 01:36:21;;;;;;;23.10;8.07;;;;;;;;;;5091553;28;20074;-62
2022/04/12 01:38:47;;;;;;;25.42;8.73;;;;;;;;;;5092173;28;20486;-62
2022/04/12 01:41:14;;;;;;;25.42;9.35;;;;;;;;;;5095443;28;20024;-62
2022/04/12 01:43:40;;;;;;;28.27;10.27;;;;;;;;;;5093731;28;20090;-62
2022/04/12 01:46:06;;;;;;;23.90;8.95;;;;;;;;;;5095252;28;20040;-62
2022/04/12 01:48:32;;;;;;;22.52;8.77;;;;;;;;;;5095453;28;20035;-62
2022/04/12 01:50:58;;;;;;;21.08;9.10;;;;;;;;;;5095219;28;20028;-62
2022/04/12 01:53:24;;;;;;;20.05;8.05;;;;;;;;;;5095066;28;20031;-62
2022/04/12 01:55:50;;;;;;;23.55;7.68;;;;;;;;;;5095111;28;20028;-62
2022/04/12 01:58:17;;;;;;;24.33;7.50;;;;;;;;;;5094582;28;20041;-62
2022/04/12 02:00:43;;;;;;;22.48;6.75;;;;;;;;;;5095397;28;20508;-62
2022/04/12 02:03:09;;;;;;;23.92;6.68;;;;;;;;;;5094847;28;20036;-62
2022/04/12 02:05:35;;;;;;;20.40;5.53;;;;;;;;;;5095033;28;20050;-62
2022/04/12 02:08:02;;;;;;;21.77;6.05;;;;;;;;;;5095008;28;20028;-62
2022/04/12 02:10:28;;;;;;;16.90;5.22;;;;;;;;;;5094397;28;20062;-62
2022/04/12 02:12:54;;;;;;;23.48;5.38;;;;;;;;;;5095235;28;20026;-62
2022/04/12 02:15:20;;;;;;;17.27;4.40;;;;;;;;;;5094856;28;20051;-62
2022/04/12 02:17:46;;;;;;;19.67;4.97;;;;;;;;;;5094930;28;20049;-62
2022/04/12 02:20:12;;;;;;;9.77;4.35;;;;;;;;;;5094656;28;20446;-62
2022/04/12 02:22:38;;;;;;;13.43;4.00;;;;;;;;;;5094707;28;20099;-62
2022/04/12 02:25:05;;;;;;;22.50;4.88;;;;;;;;;;5094329;28;20379;-62
2022/04/12 02:27:31;;;;;;;20.42;4.45;;;;;;;;;;5094644;28;20028;-62
2022/04/12 02:29:57;;;;;;;16.40;4.07;;;;;;;;;;5094716;28;20428;-62
2022/04/12 02:32:23;;;;;;;16.02;3.92;;;;;;;;;;5094284;28;20023;-62
2022/04/12 02:34:49;;;;;;;20.58;4.78;;;;;;;;;;5094382;28;20044;-62
2022/04/12 02:37:15;;;;;;;11.48;5.07;;;;;;;;;;5094328;28;20035;-62
2022/04/12 02:39:42;;;;;;;15.88;5.13;;;;;;;;;;5094085;28;20044;-62
2022/04/12 02:42:08;;;;;;;20.17;4.30;;;;;;;;;;5094262;28;20393;-62
2022/04/12 02:44:34;;;;;;;18.70;5.15;;;;;;;;;;5091649;28;20517;-62
2022/04/12 02:47:00;;;;;;;17.48;4.53;;;;;;;;;;5081393;28;20040;-62
2022/04/12 02:49:26;;;;;;;22.35;5.10;;;;;;;;;;5074358;28;20024;-62
2022/04/12 02:51:52;;;;;;;14.65;3.90;;;;;;;;;;5086681;28;20076;-62
2022/04/12 02:54:18;;;;;;;19.55;4.78;;;;;;;;;;5083282;28;20035;-62
2022/04/12 02:56:45;;;;;;;15.63;4.25;;;;;;;;;;5085844;28;20562;-62
2022/04/12 02:59:11;;;;;;;17.67;4.32;;;;;;;;;;5084925;28;20043;-62
2022/04/12 03:01:37;;;;;;;17.42;3.75;;;;;;;;;;5081461;28;20021;-62
2022/04/12 03:04:03;;;;;;;23.27;4.25;;;;;;;;;;5081544;28;20028;-62
2022/04/12 03:06:29;;;;;;;18.85;4.32;;;;;;;;;;5077932;28;20028;-62
2022/04/12 03:08:55;;;;;;;14.57;4.50;;;;;;;;;;5086575;28;20462;-62
2022/04/12 03:11:22;;;;;;;19.17;5.00;;;;;;;;;;5082334;28;20028;-62
2022/04/12 03:13:48;;;;;;;26.65;5.60;;;;;;;;;;5084933;28;20110;-62
2022/04/12 03:16:14;;;;;;;25.38;4.53;;;;;;;;;;5077760;28;20553;-62
2022/04/12 03:18:41;;;;;;;18.75;3.92;;;;;;;;;;5087112;28;20115;-62
2022/04/12 03:21:07;;;;;;;32.60;4.60;;;;;;;;;;5085365;28;20367;-62
2022/04/12 03:23:33;;;;;;;22.63;4.35;;;;;;;;;;5087347;28;20077;-62
2022/04/12 03:25:59;;;;;;;36.53;6.80;;;;;;;;;;5080435;28;20123;-62
2022/04/12 03:28:25;;;;;;;19.73;6.85;;;;;;;;;;5087468;28;20034;-62
2022/04/12 03:30:51;;;;;;;23.02;4.57;;;;;;;;;;5082531;28;20367;-62
2022/04/12 03:33:18;;;;;;;17.58;4.65;;;;;;;;;;5091369;28;20046;-71
2022/04/12 03:35:45;;;;;;;26.75;5.03;;;;;;;;;;5095353;28;20516;-63
2022/04/12 03:38:13;;;;;;;18.40;4.85;;;;;;;;;;5073847;28;20028;-62
2022/04/12 03:40:39;;;;;;;20.83;4.70;;;;;;;;;;5090778;28;20027;-63
2022/04/12 03:43:05;;;;;;;33.67;5.28;;;;;;;;;;5093259;28;20051;-62
2022/04/12 03:45:33;;;;;;;21.58;4.28;;;;;;;;;;5092882;28;20028;-62
2022/04/12 03:47:59;;;;;;;25.02;4.90;;;;;;;;;;5093311;28;20417;-63
2022/04/12 03:50:25;;;;;;;17.85;4.50;;;;;;;;;;5090149;28;20396;-63
2022/04/12 03:52:51;;;;;;;26.63;4.72;;;;;;;;;;5071995;28;20032;-62
2022/04/12 03:55:38;;;;;;;28.17;6.55;;;;;;;;;;5072902;28;20490;-62
2022/04/12 03:58:06;;;;;;;11.73;3.72;;;;;;;;;;5086887;28;20158;-62
2022/04/12 04:00:32;;;;;;;20.88;5.80;;;;;;;;;;5080986;28;20036;-62
2022/04/12 04:02:58;;;;;;;24.50;5.97;;;;;;;;;;5078118;28;20037;-62
2022/04/12 04:05:25;;;;;;;29.92;6.40;;;;;;;;;;5088559;28;20028;-62
2022/04/12 04:07:51;;;;;;;20.00;4.82;;;;;;;;;;5079040;28;20032;-62
2022/04/12 04:10:18;;;;;;;28.77;5.32;;;;;;;;;;5080072;28;20028;-63
2022/04/12 04:12:44;;;;;;;24.23;5.25;;;;;;;;;;5080752;28;20040;-62
2022/04/12 04:15:14;;;;;;;20.33;4.63;;;;;;;;;;5087097;28;20066;-62
2022/04/12 04:17:45;;;;;;;28.15;4.95;;;;;;;;;;5091150;28;20064;-62
2022/04/12 04:20:11;;;;;;;23.38;5.63;;;;;;;;;;5092113;28;20074;-62
2022/04/12 04:22:38;;;;;;;21.63;5.30;;;;;;;;;;5091478;28;20481;-62
2022/04/12 04:25:04;;;;;;;25.77;6.00;;;;;;;;;;5085962;28;20074;-62
2022/04/12 04:27:30;;;;;;;23.80;5.90;;;;;;;;;;5076750;28;20560;-62
2022/04/12 04:29:56;;;;;;;27.05;5.75;;;;;;;;;;5088248;28;20070;-62
2022/04/12 04:32:23;;;;;;;26.20;5.70;;;;;;;;;;5083665;28;20016;-62
2022/04/12 04:34:49;;;;;;;28.13;4.75;;;;;;;;;;5071995;28;20040;-62
2022/04/12 04:37:15;;;;;;;28.35;5.15;;;;;;;;;;5091453;28;20497;-62
2022/04/12 04:39:41;;;;;;;25.85;5.10;;;;;;;;;;5091980;28;20482;-62
2022/04/12 04:42:08;;;;;;;29.90;5.57;;;;;;;;;;5078743;28;20082;-62
2022/04/12 04:44:34;;;;;;;21.77;4.70;;;;;;;;;;5091067;28;20052;-62
2022/04/12 04:47:00;;;;;;;23.58;5.18;;;;;;;;;;5087650;28;20527;-62
2022/04/12 04:49:26;;;;;;;27.48;5.40;;;;;;;;;;5091671;28;20032;-63
2022/04/12 04:51:52;;;;;;;24.35;5.93;;;;;;;;;;5088029;28;20008;-62
2022/04/12 04:54:18;;;;;;;26.05;5.15;;;;;;;;;;5080113;28;20036;-62
2022/04/12 04:56:44;;;;;;;24.27;5.97;;;;;;;;;;5091828;28;20067;-62
2022/04/12 04:59:12;;;;;;;27.15;6.65;;;;;;;;;;5082815;28;20036;-63
2022/04/12 05:01:38;;;;;;;31.52;5.72;;;;;;;;;;5087964;28;20406;-62
2022/04/12 05:04:04;;;;;;;33.03;6.55;;;;;;;;;;5073102;28;20393;-62
2022/04/12 05:06:30;;;;;;;23.50;5.72;;;;;;;;;;5079123;28;20081;-62
2022/04/12 05:08:56;;;;;;;29.20;6.13;;;;;;;;;;5079718;28;20115;-62
2022/04/12 05:11:22;;;;;;;36.38;6.82;;;;;;;;;;5078818;28;20013;-62
2022/04/12 05:13:49;;;;;;;25.38;5.80;;;;;;;;;;5085253;28;20397;-62
2022/04/12 05:16:15;;;;;;;29.10;5.95;;;;;;;;;;5082079;28;20028;-62
2022/04/12 05:18:41;;;;;;;24.75;5.18;;;;;;;;;;5085369;28;20031;-62
2022/04/12 05:21:07;;;;;;;29.80;6.38;;;;;;;;;;5083397;28;20074;-62
2022/04/12 05:23:33;;;;;;;31.38;5.82;;;;;;;;;;5083164;28;20023;-62
2022/04/12 05:26:00;;;;;;;34.72;8.15;;;;;;;;;;5085750;28;20032;-62
2022/04/12 05:28:26;;;;;;;30.58;5.82;;;;;;;;;;5081974;28;20028;-62
2022/04/12 05:30:53;;;;;;;29.30;6.22;;;;;;;;;;5078562;28;20028;-63
2022/04/12 05:33:19;;;;;;;20.77;6.35;;;;;;;;;;5076944;28;20099;-62
2022/04/12 05:35:45;;;;;;;35.25;7.68;;;;;;;;;;5080477;28;20112;-62
2022/04/12 05:38:11;;;;;;;22.25;5.72;;;;;;;;;;5079109;28;20032;-62
2022/04/12 05:40:38;;;;;;;25.52;5.03;;;;;;;;;;5076779;28;20021;-62
2022/04/12 05:43:04;;;;;;;26.58;5.68;;;;;;;;;;5081199;28;20067;-62
2022/04/12 05:45:30;;;;;;;30.25;6.30;;;;;;;;;;5093246;28;20113;-62
2022/04/12 05:47:56;;;;;;;29.55;6.53;;;;;;;;;;5077304;28;20082;-62
2022/04/12 05:50:23;;;;;;;22.77;6.15;;;;;;;;;;5074005;28;20021;-63
2022/04/12 05:52:50;;;;;;;27.48;5.78;;;;;;;;;;5092416;28;20371;-62
2022/04/12 05:55:17;;;;;;;26.38;7.10;;;;;;;;;;5093533;28;20008;-62
2022/04/12 05:57:51;;;;;;;22.73;7.13;;;;;;;;;;5077673;28;20016;-62
2022/04/12 06:00:18;;;;;;;27.63;5.32;;;;;;;;;;5074201;28;20013;-63
2022/04/12 06:02:45;;;;;;;31.25;5.70;;;;;;;;;;5090149;28;20435;-63
2022/04/12 06:05:13;;;;;;;23.45;5.60;;;;;;;;;;5090258;28;20028;-62
2022/04/12 06:07:39;;;;;;;27.35;5.13;;;;;;;;;;5086058;28;20025;-62
2022/04/12 06:10:06;;;;;;;23.35;5.97;;;;;;;;;;5080519;28;20099;-62
2022/04/12 06:12:32;;;;;;;19.98;5.28;;;;;;;;;;5080061;28;20077;-62
2022/04/12 06:14:58;;;;;;;24.77;5.65;;;;;;;;;;5076478;28;20031;-62
2022/04/12 06:17:31;;;;;;;25.35;5.70;;;;;;;;;;5078533;28;20029;-62
2022/04/12 06:20:01;;;;;;;24.75;5.65;;;;;;;;;;5077713;28;20028;-62
2022/04/12 06:22:27;;;;;;;23.83;5.60;;;;;;;;;;5077966;28;20038;-62
2022/04/12 06:24:53;;;;;;;18.65;5.20;;;;;;;;;;5077305;28;20494;-62
2022/04/12 06:27:28;;;;;;;23.60;5.50;;;;;;;;;;5080515;28;20020;-62
2022/04/12 06:29:54;;;;;;;20.50;6.15;;;;;;;;;;5079122;28;20045;-63
2022/04/12 06:32:20;;;;;;;22.08;5.70;;;;;;;;;;5075580;28;20082;-63
2022/04/12 06:34:46;;;;;;;24.65;6.30;;;;;;;;;;5078868;28;20525;-62
2022/04/12 06:37:12;;;;;;;20.50;6.95;;;;;;;;;;5077854;28;20024;-62
2022/04/12 06:39:39;;;;;;;26.08;7.10;;;;;;;;;;5078360;28;20028;-62
2022/04/12 06:42:05;;;;;;;29.25;7.75;;;;;;;;;;5077050;28;20025;-63
2022/04/12 06:44:32;;;;;;;23.33;8.35;;;;;;;;;;5076146;28;20025;-62
2022/04/12 06:46:58;;;;;;;35.88;8.18;;;;;;;;;;5075016;28;20056;-62
2022/04/12 06:49:25;;;;;;;28.35;9.00;;;;;;;;;;5077117;28;20481;-62
2022/04/12 06:51:51;;;;;;;20.13;7.97;;;;;;;;;;5078243;28;20020;-62
2022/04/12 06:54:17;;;;;;;24.23;6.55;;;;;;;;;;5079216;28;20015;-62
2022/04/12 06:56:43;;;;;;;21.38;7.38;;;;;;;;;;5079514;28;20044;-62
2022/04/12 06:59:10;;;;;;;25.98;7.80;;;;;;;;;;5077153;28;20490;-62
2022/04/12 07:01:36;;;;;;;19.17;8.50;;;;;;;;;;5077068;28;20013;-62
2022/04/12 07:04:02;;;;;;;27.83;6.97;;;;;;;;;;5074772;28;20079;-62
2022/04/12 07:06:28;;;;;;;20.45;6.63;;;;;;;;;;5078085;28;20036;-63
2022/04/12 07:08:54;;;;;;;17.58;6.03;;;;;;;;;;5081961;28;20028;-62
2022/04/12 07:11:20;;;;;;;25.33;6.45;;;;;;;;;;5083940;28;20020;-62
2022/04/12 07:13:46;;;;;;;28.63;7.00;;;;;;;;;;5082324;28;20027;-63
2022/04/12 07:16:12;;;;;;;23.08;6.20;;;;;;;;;;5080123;28;20020;-66
2022/04/12 07:18:41;;;;;;;19.23;5.25;;;;;;;;;;5080154;28;20029;-62
2022/04/12 07:21:08;;;;;;;15.13;5.22;;;;;;;;;;5081364;28;20373;-62
2022/04/12 07:23:36;;;;;;;21.20;5.18;;;;;;;;;;5080141;28;20055;-63
2022/04/12 07:26:03;;;;;;;22.63;7.20;;;;;;;;;;5088893;28;20031;-63
2022/04/12 07:28:29;;;;;;;15.60;6.03;;;;;;;;;;5091190;28;20062;-62
2022/04/12 07:30:55;;;;;;;13.77;4.68;;;;;;;;;;5081519;28;20059;-63
2022/04/12 07:33:22;;;;;;;14.00;4.13;;;;;;;;;;5079599;28;20013;-63
2022/04/12 07:35:48;;;;;;;12.93;5.20;;;;;;;;;;5079239;28;20115;-62
2022/04/12 07:38:14;;;;;;;15.85;4.43;;;;;;;;;;5072613;28;20435;-63
2022/04/12 07:40:40;;;;;;;18.33;3.95;;;;;;;;;;5079550;28;20028;-62
2022/04/12 07:43:06;;;;;;;22.23;5.55;;;;;;;;;;5074720;28;20402;-62
2022/04/12 07:45:33;;;;;;;9.35;3.30;;;;;;;;;;5073360;28;20044;-63
2022/04/12 07:47:59;;;;;;;16.02;3.58;;;;;;;;;;5075542;28;20062;-62
2022/04/12 07:50:26;;;;;;;13.30;3.30;;;;;;;;;;5070282;28;20024;-63
2022/04/12 07:52:52;;;;;;;17.17;4.07;;;;;;;;;;5072536;28;20033;-63
2022/04/12 07:55:18;;;;;;;17.70;3.90;;;;;;;;;;5070012;28;20021;-63
2022/04/12 07:57:44;;;;;;;15.95;3.05;;;;;;;;;;5076374;28;20039;-63
2022/04/12 08:00:11;;;;;;;10.00;2.70;;;;;;;;;;5088971;28;20452;-63
2022/04/12 08:02:39;;;;;;;16.25;3.58;;;;;;;;;;5070253;28;20032;-63
2022/04/12 08:05:06;;;;;;;8.95;2.92;;;;;;;;;;5069849;28;20452;-63
2022/04/12 08:07:32;;;;;;;12.75;3.58;;;;;;;;;;5088728;28;20027;-63
2022/04/12 08:09:58;;;;;;;15.65;3.42;;;;;;;;;;5070052;28;20021;-63
2022/04/12 08:12:24;;;;;;;10.32;2.45;;;;;;;;;;5070105;28;20024;-63
2022/04/12 08:14:50;;;;;;;9.93;3.65;;;;;;;;;;5085886;28;20615;-63
2022/04/12 08:17:16;;;;;;;11.65;3.03;;;;;;;;;;5089538;28;20082;-63
2022/04/12 08:19:42;;;;;;;11.55;2.67;;;;;;;;;;5089948;28;20069;-63
2022/04/12 08:22:09;;;;;;;14.98;2.90;;;;;;;;;;5086687;28;20436;-63
2022/04/12 08:24:36;;;;;;;9.75;2.65;;;;;;;;;;5069607;28;20497;-63
2022/04/12 08:27:04;;;;;;;8.02;2.15;;;;;;;;;;5074968;28;20067;-63
2022/04/12 08:29:30;;;;;;;11.40;2.40;;;;;;;;;;5072122;28;20058;-63
2022/04/12 08:31:56;;;;;;;7.60;1.98;;;;;;;;;;5069679;28;20028;-63
2022/04/12 08:34:22;;;;;;;9.95;2.10;;;;;;;;;;5080920;28;20036;-63
2022/04/12 08:36:48;;;;;;;9.70;2.50;;;;;;;;;;5071317;28;20094;-63
2022/04/12 08:39:14;;;;;;;6.47;2.50;;;;;;;;;;5071059;28;20043;-63
2022/04/12 08:41:41;;;;;;;8.60;2.63;;;;;;;;;;5073707;28;20032;-63
2022/04/12 08:44:07;;;;;;;10.75;2.45;;;;;;;;;;5067994;28;20025;-63
2022/04/12 08:46:33;;;;;;;8.55;2.45;;;;;;;;;;5068159;28;20020;-63
2022/04/12 08:49:00;;;;;;;7.55;1.42;;;;;;;;;;5070561;28;20036;-63
2022/04/12 08:51:28;;;;;;;11.38;1.90;;;;;;;;;;5072228;28;20037;-63
2022/04/12 08:53:56;;;;;;;9.00;1.90;;;;;;;;;;5072432;28;20444;-63
2022/04/12 08:56:23;;;;;;;13.13;2.83;;;;;;;;;;5070078;28;20086;-63
2022/04/12 08:58:49;;;;;;;11.13;2.17;;;;;;;;;;5077005;28;20028;-63
2022/04/12 09:01:15;;;;;;;8.88;2.75;;;;;;;;;;5078381;28;20028;-62
2022/04/12 09:03:41;;;;;;;15.15;2.40;;;;;;;;;;5077865;28;20073;-63
2022/04/12 09:06:10;;;;;;;7.60;2.00;;;;;;;;;;5069607;28;20021;-63
2022/04/12 09:08:36;;;;;;;9.43;1.52;;;;;;;;;;5069146;28;20030;-63
2022/04/12 09:11:05;;;;;;;10.52;2.55;;;;;;;;;;5071431;28;20430;-63
2022/04/12 09:13:31;;;;;;;8.60;2.40;;;;;;;;;;5072147;28;20027;-63
2022/04/12 09:15:58;;;;;;;9.07;2.35;;;;;;;;;;5069598;28;20043;-63
2022/04/12 09:18:34;;;;;;;8.10;2.45;;;;;;;;;;5076732;28;20532;-63
2022/04/12 09:21:31;;;;;;;13.32;3.10;;;;;;;;;;5075454;28;20386;-63
2022/04/12 09:23:59;;;;;;;12.07;3.33;;;;;;;;;;5074858;28;20041;-64
2022/04/12 09:26:33;;;;;;;10.55;3.08;;;;;;;;;;5069982;28;20030;-64
2022/04/12 09:29:00;;;;;;;10.15;3.50;;;;;;;;;;5069528;28;20032;-63
2022/04/12 09:31:26;;;;;;;14.93;3.17;;;;;;;;;;5070039;28;20508;-63
2022/04/12 09:33:53;;;;;;;12.75;4.20;;;;;;;;;;5073151;28;20382;-64
2022/04/12 09:36:19;;;;;;;9.43;3.40;;;;;;;;;;5084302;28;20524;-64
2022/04/12 10:57:19;;;;;;;9.48;2.20;;;;;;;;;;5086073;27;20385;-65
2022/04/12 10:59:50;;;;;;;12.95;2.50;;;;;;;;;;5084140;28;20032;-65
2022/04/12 11:02:17;;;;;;;13.15;2.42;;;;;;;;;;5085843;28;20077;-65
2022/04/12 11:04:43;;;;;;;6.80;2.60;;;;;;;;;;5085133;28;20029;-66
2022/04/12 11:07:09;;;;;;;12.68;2.53;;;;;;;;;;5091458;28;20089;-65
2022/04/12 11:09:35;;;;;;;12.60;2.25;;;;;;;;;;5085440;28;20370;-65
2022/04/12 11:12:03;;;;;;;14.85;3.33;;;;;;;;;;5084013;28;20017;-66
2022/04/12 11:14:36;;;;;;;15.80;2.42;;;;;;;;;;5080994;28;20477;-65
2022/04/12 11:17:12;;;;;;;9.02;2.42;;;;;;;;;;5082342;28;20473;-65
2022/04/12 11:19:42;;;;;;;11.52;2.75;;;;;;;;;;5074159;28;20103;-65
2022/04/12 11:22:15;;;;;;;9.90;3.30;;;;;;;;;;5083117;28;20029;-65
2022/04/12 11:24:42;;;;;;;11.10;2.78;;;;;;;;;;5083569;28;20020;-65
2022/04/12 11:27:08;;;;;;;8.77;2.30;;;;;;;;;;5078519;28;20028;-66
2022/04/12 11:29:35;;;;;;;8.07;2.50;;;;;;;;;;5075277;28;20016;-65
2022/04/12 11:32:02;;;;;;;10.93;2.30;;;;;;;;;;5078505;28;20035;-66
2022/04/12 11:34:29;;;;;;;8.25;2.25;;;;;;;;;;5076972;28;20017;-66
2022/04/12 11:36:56;;;;;;;12.98;2.30;;;;;;;;;;5065434;28;20016;-66
2022/04/12 11:39:27;;;;;;;10.50;1.80;;;;;;;;;;5081763;28;20016;-65
2022/04/12 11:41:57;;;;;;;12.05;2.20;;;;;;;;;;5078938;28;20108;-65
2022/04/12 11:44:23;;;;;;;9.80;2.65;;;;;;;;;;5079897;28;20026;-65
2022/04/12 11:47:08;;;;;;;8.05;1.92;;;;;;;;;;5079373;28;20036;-65
2022/04/12 11:49:41;;;;;;;23.05;3.00;;;;;;;;;;5073702;28;20036;-65
2022/04/12 11:52:11;;;;;;;11.23;3.00;;;;;;;;;;5071697;28;20025;-65
2022/04/12 11:54:39;;;;;;;7.88;2.10;;;;;;;;;;5078269;28;20036;-65
2022/04/12 11:57:05;;;;;;;10.73;2.00;;;;;;;;;;4989403;28;20590;-65
2022/04/12 12:00:07;;;;;;;8.00;2.10;;;;;;;;;;4971534;28;20035;-65
2022/04/12 12:02:35;;;;;;;7.97;1.70;;;;;;;;;;5029126;28;20052;-65
2022/04/12 12:05:03;;;;;;;8.43;2.03;;;;;;;;;;5021292;28;20046;-65
2022/04/12 12:07:30;;;;;;;12.13;1.95;;;;;;;;;;5024599;28;20033;-65
2022/04/12 12:09:58;;;;;;;8.70;1.90;;;;;;;;;;5020849;28;20376;-65
2022/04/12 12:12:34;;;;;;;12.45;1.90;;;;;;;;;;5021856;28;20418;-65
2022/04/12 12:15:20;;;;;;;7.80;2.15;;;;;;;;;;5022660;28;20071;-65
2022/04/12 12:17:48;;;;;;;14.05;1.95;;;;;;;;;;5021099;28;20046;-65
2022/04/12 12:20:15;;;;;;;8.63;1.98;;;;;;;;;;5022835;28;20026;-65
2022/04/12 12:22:43;;;;;;;13.15;2.33;;;;;;;;;;5023913;28;20034;-65
2022/04/12 12:25:10;;;;;;;8.27;1.77;;;;;;;;;;5021537;28;20029;-67
2022/04/12 12:27:37;;;;;;;7.45;1.88;;;;;;;;;;5018183;28;20572;-67
2022/04/12 12:30:03;;;;;;;12.13;1.85;;;;;;;;;;5012872;28;20030;-66
2022/04/12 12:32:33;;;;;;;9.32;2.00;;;;;;;;;;5025887;28;20026;-65
2022/04/12 12:35:03;;;;;;;4.80;1.90;;;;;;;;;;5032790;28;20088;-72
2022/04/12 12:37:29;;;;;;;6.53;1.60;;;;;;;;;;4978018;28;20042;-70
2022/04/12 12:39:55;;;;;;;12.32;2.10;;;;;;;;;;4973112;28;20101;-71
2022/04/12 12:42:22;;;;;;;11.55;2.10;;;;;;;;;;4972829;28;20456;-67
2022/04/12 12:44:49;;;;;;;5.45;2.00;;;;;;;;;;4972844;28;20031;-63
2022/04/12 12:47:15;;;;;;;7.43;1.52;;;;;;;;;;4984922;28;20417;-68
2022/04/12 12:49:42;;;;;;;10.95;1.85;;;;;;;;;;4972974;28;20019;-71
2022/04/12 12:52:10;;;;;;;11.38;2.28;;;;;;;;;;4981313;28;20058;-71
2022/04/12 12:54:36;;;;;;;8.02;1.80;;;;;;;;;;4992120;28;20014;-67
2022/04/12 12:57:05;;;;;;;8.88;2.30;;;;;;;;;;4990096;28;20054;-67
2022/04/12 12:59:32;;;;;;;17.35;2.13;;;;;;;;;;4973231;28;20050;-68
2022/04/12 13:01:59;;;;;;;7.20;2.22;;;;;;;;;;4976974;28;20471;-65
2022/04/12 13:04:31;;;;;;;9.27;1.77;;;;;;;;;;4983082;28;20042;-71
2022/04/12 13:07:00;;;;;;;10.07;2.07;;;;;;;;;;4972763;28;20034;-69
2022/04/12 13:09:26;;;;;;;11.00;1.88;;;;;;;;;;4971334;28;20105;-68
2022/04/12 13:11:52;;;;;;;4.68;1.42;;;;;;;;;;4979227;28;20104;-67
2022/04/12 13:14:18;;;;;;;7.60;2.20;;;;;;;;;;4981854;28;20027;-74
2022/04/12 13:16:44;;;;;;;5.78;1.52;;;;;;;;;;4983920;28;20117;-67
2022/04/12 13:19:10;;;;;;;7.95;1.67;;;;;;;;;;4981585;28;20092;-72
2022/04/12 13:21:36;;;;;;;10.23;1.77;;;;;;;;;;4979224;28;20027;-68
2022/04/12 13:24:03;;;;;;;4.55;1.80;;;;;;;;;;4971886;28;20096;-67
2022/04/12 13:26:29;;;;;;;10.32;2.00;;;;;;;;;;4982874;28;20060;-68
2022/04/12 13:28:55;;;;;;;8.05;1.85;;;;;;;;;;4978483;28;20029;-66
2022/04/12 13:31:21;;;;;;;8.15;2.30;;;;;;;;;;4977815;28;20395;-66
2022/04/12 13:33:47;;;;;;;5.13;1.20;;;;;;;;;;4977709;28;20053;-67
2022/04/12 13:36:13;;;;;;;9.25;2.03;;;;;;;;;;4975743;28;20042;-66
2022/04/12 13:38:39;;;;;;;9.30;1.77;;;;;;;;;;4988852;28;20092;-70
2022/04/12 13:41:05;;;;;;;11.40;1.83;;;;;;;;;;4977610;28;20027;-67
2022/04/12 13:43:32;;;;;;;5.40;1.50;;;;;;;;;;4971852;28;20533;-68
2022/04/12 13:45:58;;;;;;;11.18;1.83;;;;;;;;;;4972045;28;20053;-69
2022/04/12 13:48:25;;;;;;;7.15;2.13;;;;;;;;;;4982453;28;20059;-64
2022/04/12 13:50:51;;;;;;;7.57;2.22;;;;;;;;;;4981901;28;20035;-70
2022/04/12 13:53:17;;;;;;;5.90;1.80;;;;;;;;;;4971095;28;20483;-64
2022/04/12 13:55:43;;;;;;;7.68;1.63;;;;;;;;;;4992460;28;20053;-64
2022/04/12 13:58:10;;;;;;;6.18;1.48;;;;;;;;;;4983682;28;20114;-66
2022/04/12 14:00:36;;;;;;;4.82;1.70;;;;;;;;;;4980777;28;20395;-71
2022/04/12 14:03:02;;;;;;;6.60;1.70;;;;;;;;;;4987517;28;20042;-65
2022/04/12 14:05:28;;;;;;;3.28;1.13;;;;;;;;;;4975185;28;20089;-65
2022/04/12 14:07:57;;;;;;;8.35;1.50;;;;;;;;;;4976196;28;20113;-65
2022/04/12 14:10:23;;;;;;;6.53;1.73;;;;;;;;;;4973412;28;20023;-65
2022/04/12 14:12:49;;;;;;;10.15;2.05;;;;;;;;;;4975786;28;20106;-65
2022/04/12 14:15:15;;;;;;;7.25;1.17;;;;;;;;;;4975451;28;20031;-65
2022/04/12 14:17:42;;;;;;;4.82;1.23;;;;;;;;;;4976473;28;20091;-65
2022/04/12 14:20:08;;;;;;;5.13;1.25;;;;;;;;;;4981664;28;20018;-65
2022/04/12 14:22:35;;;;;;;3.22;1.02;;;;;;;;;;4977487;28;20030;-65
2022/04/12 14:25:01;;;;;;;6.72;2.63;;;;;;;;;;4973386;28;20034;-65
2022/04/12 14:27:27;;;;;;;5.50;1.30;;;;;;;;;;4974926;28;20030;-65
2022/04/12 14:29:53;;;;;;;3.58;1.30;;;;;;;;;;4976358;28;20134;-68
2022/04/12 14:32:19;;;;;;;3.67;1.40;;;;;;;;;;4982444;28;20118;-65
2022/04/12 14:34:46;;;;;;;5.82;1.08;;;;;;;;;;4977795;28;20060;-65
2022/04/12 14:37:12;;;;;;;5.97;1.08;;;;;;;;;;4977297;28;20049;-64
2022/04/12 14:39:38;;;;;;;3.85;1.13;;;;;;;;;;4982386;28;20030;-64
2022/04/12 14:42:04;;;;;;;6.93;1.25;;;;;;;;;;4979393;28;20030;-65
2022/04/12 14:44:30;;;;;;;4.50;1.10;;;;;;;;;;4976492;28;20388;-65
2022/04/12 14:46:59;;;;;;;3.70;1.02;;;;;;;;;;4982089;28;20026;-65
2022/04/12 14:49:25;;;;;;;8.23;1.48;;;;;;;;;;4980178;28;20045;-65
2022/04/12 14:51:52;;;;;;;5.45;1.23;;;;;;;;;;4978781;28;20038;-65
2022/04/12 14:54:18;;;;;;;3.40;1.00;;;;;;;;;;4983926;28;20062;-65
2022/04/12 14:56:44;;;;;;;9.93;1.50;;;;;;;;;;4972737;28;20050;-65
2022/04/12 14:59:12;;;;;;;6.28;1.92;;;;;;;;;;4998442;28;20019;-65
2022/04/12 15:01:38;;;;;;;4.82;1.30;;;;;;;;;;4978408;28;20479;-65
2022/04/12 15:04:05;;;;;;;3.83;1.30;;;;;;;;;;4976304;28;20034;-65
2022/04/12 15:06:32;;;;;;;2.85;1.30;;;;;;;;;;4976131;28;20111;-65
2022/04/12 15:08:58;;;;;;;5.13;1.55;;;;;;;;;;4971926;28;20388;-65
2022/04/12 15:11:24;;;;;;;5.93;1.23;;;;;;;;;;4976140;28;20026;-65
2022/04/12 15:13:50;;;;;;;3.90;1.23;;;;;;;;;;4973431;28;20092;-64
2022/04/12 15:16:17;;;;;;;4.18;1.20;;;;;;;;;;4975611;28;20061;-65
2022/04/12 15:18:43;;;;;;;7.22;1.88;;;;;;;;;;4976035;28;20027;-65
2022/04/12 15:21:10;;;;;;;4.55;1.38;;;;;;;;;;4980441;28;20108;-65
2022/04/12 15:23:36;;;;;;;5.90;1.17;;;;;;;;;;4975200;28;20023;-65
2022/04/12 15:26:03;;;;;;;3.72;1.33;;;;;;;;;;4972077;28;20057;-65
2022/04/12 15:28:30;;;;;;;6.95;1.45;;;;;;;;;;4977805;28;20101;-65
2022/04/12 15:30:57;;;;;;;6.80;1.52;;;;;;;;;;4974134;28;20026;-65
2022/04/12 15:33:24;;;;;;;12.77;1.83;;;;;;;;;;4979563;28;20038;-65
2022/04/12 15:35:50;;;;;;;5.72;1.40;;;;;;;;;;4978889;28;20104;-65
2022/04/12 15:38:16;;;;;;;3.40;1.10;;;;;;;;;;4978674;28;20038;-65
2022/04/12 15:40:42;;;;;;;5.38;1.02;;;;;;;;;;4977487;28;20101;-64
2022/04/12 15:43:09;;;;;;;4.20;1.30;;;;;;;;;;4979467;28;20476;-64
2022/04/12 15:45:35;;;;;;;5.50;1.05;;;;;;;;;;4975565;28;20191;-65
2022/04/12 15:48:01;;;;;;;7.45;1.45;;;;;;;;;;4972016;28;20185;-65
2022/04/12 15:50:27;;;;;;;7.38;1.38;;;;;;;;;;4975270;28;20050;-65
2022/04/12 15:52:53;;;;;;;2.22;1.10;;;;;;;;;;4978908;28;20119;-65